createdAt,value
2022-10-05T00:00:49.875Z,101915.55
2022-10-05T00:03:39.135Z,101916.61
2022-10-05T00:06:10.241Z,101909.81
2022-10-05T00:08:38.461Z,101915.92
2022-10-05T00:11:13.506Z,101919.60
2022-10-05T00:13:41.698Z,101921.38
2022-10-05T00:16:15.147Z,101922.45
2022-10-05T00:18:47.178Z,101917.39
2022-10-05T00:21:18.433Z,101911.64
2022-10-05T00:23:46.640Z,101907.63
2022-10-05T00:26:21.689Z,101900.48
2022-10-05T00:28:50.403Z,101905.05
2022-10-05T00:31:30.827Z,101898.46
2022-10-05T00:33:59.228Z,101896.73
2022-10-05T00:36:27.301Z,101893.61
2022-10-05T00:38:55.537Z,101897.98
2022-10-05T00:41:23.415Z,101892.59
2022-10-05T00:44:01.550Z,101890.84
2022-10-05T00:46:29.408Z,101897.65
2022-10-05T00:49:34.965Z,101894.01
2022-10-05T00:52:20.502Z,101893.31
2022-10-05T00:55:08.052Z,101882.15
2022-10-05T00:57:57.334Z,101864.54
2022-10-05T01:00:27.153Z,101865.77
2022-10-05T01:03:07.215Z,101872.56
2022-10-05T01:05:44.593Z,101868.56
2022-10-05T01:08:46.258Z,101864.75
2022-10-05T01:11:20.428Z,101866.16
2022-10-05T01:14:03.894Z,101872.81
2022-10-05T01:16:41.435Z,101872.48
2022-10-05T01:19:40.431Z,101864.80
2022-10-05T01:22:59.650Z,101859.58
2022-10-05T01:25:44.717Z,101857.30
2022-10-05T01:28:21.639Z,101848.04
2022-10-05T01:31:01.851Z,101845.75
2022-10-05T01:33:57.789Z,101853.07
2022-10-05T01:36:43.967Z,101845.75
2022-10-05T01:39:24.024Z,101845.23
2022-10-05T01:42:10.293Z,101843.48
2022-10-05T01:44:42.451Z,101840.38
2022-10-05T01:47:20.421Z,101834.80
2022-10-05T01:50:04.839Z,101836.18
2022-10-05T01:53:12.046Z,101837.21
2022-10-05T01:56:11.433Z,101837.55
2022-10-05T01:59:03.212Z,101833.54
2022-10-05T02:01:54.995Z,101831.62
2022-10-05T02:04:59.897Z,101830.21
2022-10-05T02:07:23.547Z,101823.23
2022-10-05T02:09:59.714Z,101823.95
2022-10-05T02:12:32.912Z,101821.16
2022-10-05T02:15:15.926Z,101821.69
2022-10-05T02:17:51.239Z,101830.08
2022-10-05T02:20:25.965Z,101834.27
2022-10-05T02:22:58.947Z,101838.46
2022-10-05T02:25:35.075Z,101833.06
2022-10-05T02:28:12.609Z,101826.77
2022-10-05T02:30:55.760Z,101832.18
2022-10-05T02:33:24.369Z,101827.64
2022-10-05T02:35:54.603Z,101824.33
2022-10-05T02:38:41.403Z,101814.21
2022-10-05T02:41:24.625Z,101810.54
2022-10-05T02:44:20.137Z,101816.13
2022-10-05T02:46:58.372Z,101820.48
2022-10-05T02:49:54.477Z,101811.95
2022-10-05T02:52:29.830Z,101806.02
2022-10-05T02:55:15.603Z,101801.48
2022-10-05T02:57:57.309Z,101795.73
2022-10-05T03:00:33.655Z,101792.76
2022-10-05T03:03:11.557Z,101785.08
2022-10-05T03:06:00.720Z,101781.39
2022-10-05T03:08:51.616Z,101779.81
2022-10-05T03:11:45.714Z,101775.27
2022-10-05T03:14:20.730Z,101778.58
2022-10-05T03:17:20.496Z,101782.23
2022-10-05T03:20:28.272Z,101777.69
2022-10-05T03:23:02.720Z,101773.80
2022-10-05T03:25:44.059Z,101776.56
2022-10-05T03:28:56.816Z,101772.66
2022-10-05T03:31:43.725Z,101766.70
2022-10-05T03:34:14.729Z,101768.25
2022-10-05T03:36:51.512Z,101770.85
2022-10-05T03:39:31.149Z,101774.52
2022-10-05T03:42:24.203Z,101770.16
2022-10-05T03:45:03.449Z,101766.85
2022-10-05T03:47:49.423Z,101757.09
2022-10-05T03:50:56.406Z,101750.81
2022-10-05T03:53:35.456Z,101745.92
2022-10-05T03:56:03.667Z,101745.92
2022-10-05T03:58:41.329Z,101747.84
2022-10-05T04:01:15.963Z,101749.23
2022-10-05T04:03:48.405Z,101746.10
2022-10-05T04:06:18.960Z,101744.36
2022-10-05T04:09:06.044Z,101745.58
2022-10-05T04:11:40.715Z,101748.02
2022-10-05T04:14:30.220Z,101747.65
2022-10-05T04:17:03.228Z,101750.96
2022-10-05T04:19:46.939Z,101752.02
2022-10-05T04:22:20.717Z,101751.66
2022-10-05T04:24:58.781Z,101754.47
2022-10-05T04:27:51.219Z,101749.06
2022-10-05T04:30:20.621Z,101752.57
2022-10-05T04:33:00.874Z,101748.89
2022-10-05T04:35:42.565Z,101751.15
2022-10-05T04:38:47.851Z,101745.21
2022-10-05T04:41:41.361Z,101747.64
2022-10-05T04:44:48.434Z,101747.13
2022-10-05T04:48:02.510Z,101745.04
2022-10-05T04:51:06.520Z,101747.65
2022-10-05T04:53:38.395Z,101740.84
2022-10-05T04:56:11.606Z,101743.79
2022-10-05T04:58:43.179Z,101739.42
2022-10-05T05:01:32.493Z,101743.60
2022-10-05T05:04:24.925Z,101739.23
2022-10-05T05:07:22.496Z,101732.60
2022-10-05T05:10:19.854Z,101734.88
2022-10-05T05:13:21.986Z,101737.33
2022-10-05T05:16:10.777Z,101736.48
2022-10-05T05:18:58.407Z,101737.54
2022-10-05T05:21:54.398Z,101733.52
2022-10-05T05:24:47.043Z,101727.08
2022-10-05T05:27:27.349Z,101719.91
2022-10-05T05:30:13.641Z,101721.30
2022-10-05T05:33:03.312Z,101716.77
2022-10-05T05:36:05.311Z,101721.14
2022-10-05T05:39:01.106Z,101717.67
2022-10-05T05:41:39.493Z,101702.85
2022-10-05T05:44:24.565Z,101703.02
2022-10-05T05:47:04.758Z,101704.77
2022-10-05T05:50:10.491Z,101700.08
2022-10-05T05:52:49.625Z,101700.61
2022-10-05T05:55:30.392Z,101688.77
2022-10-05T05:58:21.066Z,101691.06
2022-10-05T06:01:04.531Z,101696.71
2022-10-05T06:04:08.941Z,101694.82
2022-10-05T06:06:44.799Z,101696.59
2022-10-05T06:09:22.695Z,101709.52
2022-10-05T06:12:24.764Z,101712.34
2022-10-05T06:15:00.783Z,101715.85
2022-10-05T06:17:37.899Z,101714.69
2022-10-05T06:20:17.134Z,101711.05
2022-10-05T06:22:47.351Z,101705.65
2022-10-05T06:25:56.925Z,101705.64
2022-10-05T06:28:27.408Z,101693.96
2022-10-05T06:31:05.324Z,101694.67
2022-10-05T06:33:53.930Z,101692.24
2022-10-05T06:36:28.588Z,101696.27
2022-10-05T06:38:59.130Z,101695.95
2022-10-05T06:41:48.531Z,101699.11
2022-10-05T06:44:55.278Z,101686.42
2022-10-05T06:47:49.127Z,101680.02
2022-10-05T06:50:36.579Z,101688.80
2022-10-05T06:53:39.365Z,101680.98
2022-10-05T06:56:12.963Z,101674.76
2022-10-05T06:58:50.942Z,101684.75
2022-10-05T07:01:37.455Z,101687.41
2022-10-05T07:04:26.020Z,101677.83
2022-10-05T07:07:03.105Z,101682.58
2022-10-05T07:09:49.394Z,101684.67
2022-10-05T07:12:41.667Z,101688.88
2022-10-05T07:15:19.687Z,101690.81
2022-10-05T07:18:09.121Z,101692.41
2022-10-05T07:20:53.564Z,101683.52
2022-10-05T07:23:52.781Z,101687.41
2022-10-05T07:26:21.041Z,101694.06
2022-10-05T07:29:08.585Z,101692.50
2022-10-05T07:31:53.554Z,101687.95
2022-10-05T07:34:36.365Z,101686.36
2022-10-05T07:37:44.511Z,101693.01
2022-10-05T07:40:19.807Z,101691.25
2022-10-05T07:43:14.012Z,101689.13
2022-10-05T07:45:45.459Z,101685.61
2022-10-05T07:48:35.825Z,101687.52
2022-10-05T07:51:18.003Z,101682.94
2022-10-05T07:54:06.603Z,101699.02
2022-10-05T07:56:43.944Z,101700.54
2022-10-05T07:59:39.074Z,101695.10
2022-10-05T08:02:23.085Z,101688.75
2022-10-05T08:04:59.911Z,101672.41
2022-10-05T08:07:32.973Z,101664.48
2022-10-05T08:10:22.972Z,101676.19
2022-10-05T08:12:54.923Z,101671.79
2022-10-05T08:15:31.211Z,101674.23
2022-10-05T08:18:12.242Z,101670.38
2022-10-05T08:20:57.124Z,101675.09
2022-10-05T08:23:32.116Z,101677.89
2022-10-05T08:26:12.007Z,101678.59
2022-10-05T08:28:43.995Z,101673.32
2022-10-05T08:31:25.581Z,101675.41
2022-10-05T08:34:26.094Z,101677.86
2022-10-05T08:37:19.243Z,101679.44
2022-10-05T08:40:11.932Z,101669.40
2022-10-05T08:42:55.219Z,101668.30
2022-10-05T08:45:32.128Z,101668.92
2022-10-05T08:48:18.288Z,101670.11
2022-10-05T08:51:23.738Z,101676.20
2022-10-05T08:54:20.583Z,101679.84
2022-10-05T08:57:16.505Z,101673.33
2022-10-05T08:59:47.149Z,101671.91
2022-10-05T09:02:45.071Z,101671.20
2022-10-05T09:05:29.908Z,101675.59
2022-10-05T09:08:09.716Z,101678.57
2022-10-05T09:10:37.991Z,101680.84
2022-10-05T09:13:18.660Z,101681.52
2022-10-05T09:16:28.115Z,101682.34
2022-10-05T09:19:22.997Z,101682.30
2022-10-05T09:22:12.001Z,101679.98
2022-10-05T09:24:57.306Z,101671.16
2022-10-05T09:27:36.617Z,101673.77
2022-10-05T09:30:35.824Z,101677.95
2022-10-05T09:33:31.787Z,101682.10
2022-10-05T09:36:18.393Z,101679.40
2022-10-05T09:39:23.536Z,101681.80
2022-10-05T09:42:21.195Z,101683.98
2022-10-05T09:45:23.675Z,101673.34
2022-10-05T09:48:26.036Z,101667.41
2022-10-05T09:51:06.982Z,101669.59
2022-10-05T09:53:53.626Z,101664.09
2022-10-05T09:56:43.830Z,101655.57
2022-10-05T09:59:47.110Z,101657.27
2022-10-05T10:02:16.121Z,101646.79
2022-10-05T10:05:20.339Z,101639.14
2022-10-05T10:07:55.952Z,101652.90
2022-10-05T10:11:05.392Z,101662.70
2022-10-05T10:14:06.123Z,101663.52
2022-10-05T10:16:58.482Z,101659.05
2022-10-05T10:19:49.161Z,101657.95
2022-10-05T10:22:25.966Z,101662.27
2022-10-05T10:25:12.424Z,101666.05
2022-10-05T10:27:54.391Z,101666.69
2022-10-05T10:30:46.911Z,101665.59
2022-10-05T10:33:15.789Z,101664.48
2022-10-05T10:36:33.226Z,101660.56
2022-10-05T10:39:12.416Z,101658.20
2022-10-05T10:42:04.134Z,101652.52
2022-10-05T10:44:37.780Z,101653.72
2022-10-05T10:47:40.218Z,101648.61
2022-10-05T10:50:20.221Z,101645.82
2022-10-05T10:53:25.873Z,101648.35
2022-10-05T10:56:28.445Z,101642.73
2022-10-05T10:59:08.180Z,101641.44
2022-10-05T11:01:40.179Z,101643.66
2022-10-05T11:04:39.648Z,101644.15
2022-10-05T11:07:16.521Z,101644.25
2022-10-05T11:10:21.663Z,101639.41
2022-10-05T11:13:17.691Z,101640.37
2022-10-05T11:16:12.513Z,101636.39
2022-10-05T11:19:10.251Z,101642.99
2022-10-05T11:21:45.400Z,101644.91
2022-10-05T11:24:42.614Z,101639.76
2022-10-05T11:27:34.063Z,101637.96
2022-10-05T11:30:16.924Z,101642.45
2022-10-05T11:33:35.323Z,101635.86
2022-10-05T11:36:03.246Z,101636.38
2022-10-05T11:39:02.362Z,101628.59
2022-10-05T11:42:07.222Z,101626.80
2022-10-05T11:45:19.312Z,101628.92
2022-10-05T11:48:16.248Z,101631.20
2022-10-05T11:51:08.945Z,101629.46
2022-10-05T11:53:59.108Z,101631.23
2022-10-05T11:56:39.786Z,101622.25
2022-10-05T11:59:26.754Z,101625.04
2022-10-05T12:02:04.443Z,101626.35
2022-10-05T12:04:53.468Z,101625.73
2022-10-05T12:07:41.032Z,101617.16
2022-10-05T12:10:40.275Z,101616.59
2022-10-05T12:13:19.612Z,101620.91
2022-10-05T12:15:57.941Z,101615.39
2022-10-05T12:18:31.585Z,101614.99
2022-10-05T12:21:15.617Z,101619.56
2022-10-05T12:23:59.100Z,101620.20
2022-10-05T12:26:47.514Z,101616.44
2022-10-05T12:29:32.513Z,101618.48
2022-10-05T12:32:19.222Z,101621.43
2022-10-05T12:34:50.125Z,101619.05
2022-10-05T12:37:46.692Z,101619.52
2022-10-05T12:40:17.740Z,101618.04
2022-10-05T12:43:32.190Z,101614.94
2022-10-05T12:46:06.174Z,101617.48
2022-10-05T12:48:47.324Z,101615.97
2022-10-05T12:51:40.752Z,101612.88
2022-10-05T12:54:36.030Z,101611.92
2022-10-05T12:57:22.966Z,101613.45
2022-10-05T12:59:59.714Z,101613.58
2022-10-05T13:02:33.169Z,101610.28
2022-10-05T13:05:10.126Z,101616.17
2022-10-05T13:08:13.030Z,101615.35
2022-10-05T13:10:45.934Z,101618.70
2022-10-05T13:13:25.527Z,101616.09
2022-10-05T13:15:58.046Z,101615.79
2022-10-05T13:18:39.253Z,101614.25
2022-10-05T13:21:16.869Z,101617.25
2022-10-05T13:23:57.201Z,101620.91
2022-10-05T13:26:35.398Z,101621.45
2022-10-05T13:29:24.243Z,101624.09
2022-10-05T13:32:13.186Z,101610.56
2022-10-05T13:35:02.729Z,101610.46
2022-10-05T13:37:52.096Z,101610.33
2022-10-05T13:40:45.461Z,101603.84
2022-10-05T13:43:48.142Z,101605.81
2022-10-05T13:46:51.184Z,101609.77
2022-10-05T13:49:29.747Z,101610.28
2022-10-05T13:52:25.230Z,101602.90
2022-10-05T13:55:05.832Z,101603.91
2022-10-05T13:57:45.299Z,101598.73
2022-10-05T14:00:26.355Z,101601.65
2022-10-05T14:03:01.026Z,101599.79
2022-10-05T14:05:31.304Z,101597.90
2022-10-05T14:08:02.306Z,101591.59
2022-10-05T14:10:40.640Z,101585.61
2022-10-05T14:13:27.142Z,101584.59
2022-10-05T14:16:13.308Z,101586.39
2022-10-05T14:19:05.958Z,101590.35
2022-10-05T14:21:49.677Z,101594.80
2022-10-05T14:24:44.874Z,101595.73
2022-10-05T14:27:31.431Z,101588.02
2022-10-05T14:30:03.135Z,101589.42
2022-10-05T14:32:43.543Z,101596.84
2022-10-05T14:35:13.012Z,101604.44
2022-10-05T14:37:50.356Z,101602.73
2022-10-05T14:40:23.310Z,101601.87
2022-10-05T14:42:51.773Z,101600.88
2022-10-05T14:45:22.230Z,101600.40
2022-10-05T14:47:50.093Z,101602.35
2022-10-05T14:50:21.955Z,101597.47
2022-10-05T14:52:59.134Z,101599.65
2022-10-05T14:55:46.058Z,101599.33
2022-10-05T14:58:25.179Z,101595.73
2022-10-05T15:01:14.978Z,101594.20
2022-10-05T15:04:11.046Z,101595.85
2022-10-05T15:06:45.192Z,101603.65
2022-10-05T15:09:31.828Z,101603.38
2022-10-05T15:12:02.385Z,101601.16
2022-10-05T15:14:33.368Z,101598.94
2022-10-05T15:17:17.413Z,101590.39
2022-10-05T15:20:00.639Z,101593.98
2022-10-05T15:22:31.891Z,101596.00
2022-10-05T15:25:23.351Z,101594.52
2022-10-05T15:28:11.883Z,101596.55
2022-10-05T15:30:47.975Z,101596.25
2022-10-05T15:33:40.876Z,101599.10
2022-10-05T15:36:19.986Z,101597.09
2022-10-05T15:39:02.297Z,101594.70
2022-10-05T15:41:35.816Z,101595.84
2022-10-05T15:44:23.420Z,101593.64
2022-10-05T15:46:58.353Z,101595.67
2022-10-05T15:50:00.737Z,101596.45
2022-10-05T15:52:31.915Z,101597.26
2022-10-05T15:55:23.605Z,101594.39
2022-10-05T15:58:04.897Z,101588.34
2022-10-05T16:00:40.215Z,101593.52
2022-10-05T16:03:47.284Z,101590.29
2022-10-05T16:07:08.316Z,101585.15
2022-10-05T16:10:04.236Z,101582.98
2022-10-05T16:12:37.972Z,101583.61
2022-10-05T16:15:16.765Z,101586.31
2022-10-05T16:17:52.610Z,101592.15
2022-10-05T16:20:27.037Z,101596.42
2022-10-05T16:23:35.450Z,101589.61
2022-10-05T16:26:21.151Z,101597.40
2022-10-05T16:29:13.165Z,101593.59
2022-10-05T16:31:44.107Z,101589.79
2022-10-05T16:34:49.575Z,101592.13
2022-10-05T16:37:23.863Z,101588.51
2022-10-05T16:39:58.394Z,101581.02
2022-10-05T16:42:51.445Z,101581.77
2022-10-05T16:45:45.133Z,101584.29
2022-10-05T16:48:28.545Z,101582.42
2022-10-05T16:51:08.593Z,101585.27
2022-10-05T16:53:45.368Z,101585.11
2022-10-05T16:56:21.125Z,101586.55
2022-10-05T16:59:37.426Z,101590.62
2022-10-05T17:02:42.939Z,101590.14
2022-10-05T17:05:42.273Z,101594.91
2022-10-05T17:08:30.526Z,101596.00
2022-10-05T17:11:06.782Z,101594.63
2022-10-05T17:13:55.327Z,101595.35
2022-10-05T17:16:40.807Z,101594.34
2022-10-05T17:19:33.766Z,101590.35
2022-10-05T17:22:29.275Z,101586.31
2022-10-05T17:25:08.814Z,101585.82
2022-10-05T17:28:15.257Z,101585.84
2022-10-05T17:31:08.092Z,101588.30
2022-10-05T17:34:14.833Z,101584.48
2022-10-05T17:36:53.670Z,101581.51
2022-10-05T17:39:54.895Z,101583.45
2022-10-05T17:42:32.577Z,101583.84
2022-10-05T17:45:14.370Z,101585.07
2022-10-05T17:47:55.092Z,101582.98
2022-10-05T17:51:08.061Z,101583.00
2022-10-05T17:53:56.407Z,101580.58
2022-10-05T17:56:24.590Z,101578.48
2022-10-05T17:59:01.437Z,101582.70
2022-10-05T18:01:32.742Z,101578.86
2022-10-05T18:04:12.959Z,101580.45
2022-10-05T18:06:48.207Z,101581.85
2022-10-05T18:09:22.090Z,101577.48
2022-10-05T18:12:08.747Z,101578.02
2022-10-05T18:15:07.602Z,101577.31
2022-10-05T18:17:46.612Z,101577.15
2022-10-05T18:20:26.791Z,101574.35
2022-10-05T18:22:55.903Z,101573.48
2022-10-05T18:25:41.975Z,101572.44
2022-10-05T18:28:30.187Z,101574.20
2022-10-05T18:31:21.376Z,101576.66
2022-10-05T18:33:57.519Z,101578.93
2022-10-05T18:36:44.722Z,101576.15
2022-10-05T18:39:35.628Z,101577.38
2022-10-05T18:42:41.495Z,101571.09
2022-10-05T18:45:46.311Z,101570.40
2022-10-05T18:48:45.518Z,101566.21
2022-10-05T18:51:28.622Z,101567.09
2022-10-05T18:54:14.465Z,101563.42
2022-10-05T18:56:49.959Z,101562.39
2022-10-05T18:59:46.593Z,101562.04
2022-10-05T19:02:32.634Z,101558.02
2022-10-05T19:05:07.282Z,101558.73
2022-10-05T19:07:49.408Z,101554.88
2022-10-05T19:10:28.647Z,101554.02
2022-10-05T19:13:14.737Z,101553.14
2022-10-05T19:16:18.791Z,101551.23
2022-10-05T19:18:56.854Z,101551.23
2022-10-05T19:21:43.257Z,101551.05
2022-10-05T19:24:23.407Z,101551.55
2022-10-05T19:27:19.337Z,101552.08
2022-10-05T19:30:14.849Z,101553.48
2022-10-05T19:32:53.770Z,101555.57
2022-10-05T19:35:43.855Z,101550.15
2022-10-05T19:38:15.305Z,101547.35
2022-10-05T19:40:49.929Z,101549.63
2022-10-05T19:43:39.198Z,101552.08
2022-10-05T19:46:07.314Z,101550.15
2022-10-05T19:48:44.657Z,101552.25
2022-10-05T19:51:25.416Z,101552.08
2022-10-05T19:53:56.262Z,101553.29
2022-10-05T19:56:26.439Z,101555.05
2022-10-05T19:58:57.625Z,101553.64
2022-10-05T20:01:31.511Z,101555.73
2022-10-05T20:04:00.152Z,101558.18
2022-10-05T20:06:39.860Z,101555.56
2022-10-05T20:09:22.065Z,101558.17
2022-10-05T20:11:55.531Z,101555.55
2022-10-05T20:14:57.250Z,101556.42
2022-10-05T20:17:51.507Z,101556.42
2022-10-05T20:20:30.733Z,101555.90
2022-10-05T20:23:21.743Z,101557.12
2022-10-05T20:26:10.192Z,101553.45
2022-10-05T20:28:38.429Z,101554.32
2022-10-05T20:31:08.240Z,101555.02
2022-10-05T20:33:36.355Z,101552.57
2022-10-05T20:36:04.520Z,101551.52
2022-10-05T20:38:40.654Z,101555.71
2022-10-05T20:41:09.181Z,101552.05
2022-10-05T20:43:39.222Z,101551.86
2022-10-05T20:46:07.759Z,101551.16
2022-10-05T20:48:40.953Z,101546.27
2022-10-05T20:51:08.917Z,101546.27
2022-10-05T20:53:51.426Z,101542.41
2022-10-05T20:56:20.008Z,101544.51
2022-10-05T20:59:16.898Z,101537.34
2022-10-05T21:01:48.612Z,101534.90
2022-10-05T21:04:21.684Z,101532.45
2022-10-05T21:06:49.974Z,101530.52
2022-10-05T21:09:19.696Z,101532.96
2022-10-05T21:11:54.714Z,101530.69
2022-10-05T21:14:23.931Z,101528.07
2022-10-05T21:16:52.804Z,101530.16
2022-10-05T21:19:20.774Z,101526.67
2022-10-05T21:21:49.254Z,101528.41
2022-10-05T21:24:17.705Z,101526.66
2022-10-05T21:26:45.699Z,101529.27
2022-10-05T21:29:13.670Z,101527.02
2022-10-05T21:31:42.073Z,101528.77
2022-10-05T21:34:10.221Z,101525.45
2022-10-05T21:36:38.287Z,101525.62
2022-10-05T21:39:06.256Z,101526.84
2022-10-05T21:41:34.229Z,101530.16
2022-10-05T21:44:02.256Z,101532.25
2022-10-05T21:46:30.367Z,101532.77
2022-10-05T21:48:58.333Z,101533.13
2022-10-05T21:51:27.327Z,101530.16
2022-10-05T21:53:58.372Z,101531.02
2022-10-05T21:56:31.473Z,101528.23
2022-10-05T21:59:01.387Z,101528.76
2022-10-05T22:01:29.404Z,101527.88
2022-10-05T22:03:57.611Z,101526.31
2022-10-05T22:06:25.583Z,101521.42
2022-10-05T22:08:53.548Z,101521.59
2022-10-05T22:11:21.619Z,101521.94
2022-10-05T22:13:51.534Z,101520.02
2022-10-05T22:16:23.822Z,101521.94
2022-10-05T22:18:53.762Z,101517.75
2022-10-05T22:21:22.075Z,101514.25
2022-10-05T22:23:50.269Z,101513.55
2022-10-05T22:26:21.885Z,101512.52
2022-10-05T22:28:55.178Z,101515.81
2022-10-05T22:31:23.840Z,101517.91
2022-10-05T22:33:52.381Z,101511.97
2022-10-05T22:36:20.658Z,101513.89
2022-10-05T22:38:48.701Z,101515.29
2022-10-05T22:41:18.548Z,101515.45
2022-10-05T22:43:51.115Z,101517.38
2022-10-05T22:46:20.030Z,101520.52
2022-10-05T22:48:48.395Z,101524.36
2022-10-05T22:51:16.668Z,101521.05
2022-10-05T22:53:44.631Z,101520.35
2022-10-05T22:56:13.845Z,101518.25
2022-10-05T22:58:43.106Z,101516.67
2022-10-05T23:01:14.869Z,101516.15
2022-10-05T23:03:43.872Z,101519.11
2022-10-05T23:06:18.500Z,101520.34
2022-10-05T23:08:47.521Z,101522.78
2022-10-05T23:11:19.551Z,101516.31
2022-10-05T23:13:48.079Z,101521.73
2022-10-05T23:16:19.069Z,101522.25
2022-10-05T23:18:52.017Z,101519.44
2022-10-05T23:21:21.671Z,101520.66
2022-10-05T23:23:51.414Z,101522.04
2022-10-05T23:26:22.208Z,101526.56
2022-10-05T23:28:50.959Z,101527.44
2022-10-05T23:31:21.926Z,101528.83
2022-10-05T23:33:50.413Z,101532.48
2022-10-05T23:36:20.632Z,101533.17
2022-10-05T23:38:48.600Z,101532.13
2022-10-05T23:41:17.237Z,101530.36
2022-10-05T23:43:45.985Z,101533.34
2022-10-05T23:46:14.474Z,101529.48
2022-10-05T23:48:42.520Z,101528.96
2022-10-05T23:51:12.553Z,101528.08
2022-10-05T23:53:40.514Z,101532.26
2022-10-05T23:56:08.499Z,101529.98
2022-10-05T23:58:36.450Z,101527.18
